createdAt,value
2022-11-18T00:01:57.744Z,10.63
2022-11-18T00:04:02.716Z,10.65
2022-11-18T00:06:08.418Z,10.60
2022-11-18T00:08:16.285Z,10.54
2022-11-18T00:10:23.698Z,10.51
2022-11-18T00:12:40.930Z,10.53
2022-11-18T00:14:46.010Z,10.52
2022-11-18T00:16:53.462Z,10.52
2022-11-18T00:18:58.259Z,10.54
2022-11-18T00:21:05.172Z,10.56
2022-11-18T00:23:09.959Z,10.57
2022-11-18T00:25:14.721Z,10.56
2022-11-18T00:27:22.246Z,10.58
2022-11-18T00:29:29.050Z,10.59
2022-11-18T00:31:33.971Z,10.58
2022-11-18T00:33:39.617Z,10.59
2022-11-18T00:35:44.381Z,10.60
2022-11-18T00:37:49.223Z,10.58
2022-11-18T00:39:54.009Z,10.53
2022-11-18T00:42:11.191Z,10.48
2022-11-18T00:44:18.706Z,10.42
2022-11-18T00:46:23.493Z,10.39
2022-11-18T00:48:28.471Z,10.35
2022-11-18T00:50:33.572Z,10.35
2022-11-18T00:52:38.439Z,10.35
2022-11-18T00:54:43.281Z,10.36
2022-11-18T00:56:48.221Z,10.36
2022-11-18T00:58:53.030Z,10.37
2022-11-18T01:01:00.645Z,10.41
2022-11-18T01:03:05.574Z,10.40
2022-11-18T01:05:11.221Z,10.40
2022-11-18T01:07:16.266Z,10.41
2022-11-18T01:09:21.129Z,10.41
2022-11-18T01:11:38.433Z,10.42
2022-11-18T01:13:43.231Z,10.42
2022-11-18T01:15:50.014Z,10.41
2022-11-18T01:17:57.437Z,10.37
2022-11-18T01:20:02.714Z,10.32
2022-11-18T01:22:07.208Z,10.20
2022-11-18T01:24:14.241Z,10.16
2022-11-18T01:26:20.619Z,10.17
2022-11-18T01:28:25.422Z,10.17
2022-11-18T01:30:30.222Z,10.07
2022-11-18T01:32:35.038Z,10.01
2022-11-18T01:34:44.765Z,9.97
2022-11-18T01:36:49.615Z,9.87
2022-11-18T01:38:54.993Z,9.81
2022-11-18T01:41:00.133Z,9.79
2022-11-18T01:43:04.764Z,9.81
2022-11-18T01:45:22.713Z,9.84
2022-11-18T01:47:30.141Z,9.83
2022-11-18T01:49:34.953Z,9.86
2022-11-18T01:51:51.094Z,9.93
2022-11-18T01:54:01.727Z,9.97
2022-11-18T01:56:20.743Z,10.03
2022-11-18T01:58:30.329Z,10.08
2022-11-18T02:00:35.099Z,10.12
2022-11-18T02:02:42.204Z,10.12
2022-11-18T02:04:51.599Z,10.16
2022-11-18T02:06:59.967Z,10.22
2022-11-18T02:09:05.018Z,10.26
2022-11-18T02:11:33.999Z,10.29
2022-11-18T02:13:38.913Z,10.28
2022-11-18T02:15:52.146Z,10.29
2022-11-18T02:18:05.551Z,10.28
2022-11-18T02:20:27.425Z,10.22
2022-11-18T02:23:09.254Z,10.18
2022-11-18T02:25:23.836Z,10.07
2022-11-18T02:28:00.453Z,9.99
2022-11-18T02:30:10.868Z,9.92
2022-11-18T02:32:21.428Z,9.86
2022-11-18T02:34:38.447Z,9.79
2022-11-18T02:36:47.817Z,9.72
2022-11-18T02:38:59.237Z,9.69
2022-11-18T02:41:09.321Z,9.67
2022-11-18T02:43:19.709Z,9.66
2022-11-18T02:45:30.462Z,9.66
2022-11-18T02:47:37.627Z,9.67
2022-11-18T02:49:46.366Z,9.70
2022-11-18T02:51:53.350Z,9.69
2022-11-18T02:54:01.613Z,9.69
2022-11-18T02:56:07.866Z,9.69
2022-11-18T02:58:15.341Z,9.73
2022-11-18T03:00:20.557Z,9.78
2022-11-18T03:02:27.757Z,9.77
2022-11-18T03:04:36.569Z,9.81
2022-11-18T03:06:43.479Z,9.84
2022-11-18T03:08:53.566Z,9.84
2022-11-18T03:11:06.378Z,9.85
2022-11-18T03:13:19.654Z,9.85
2022-11-18T03:15:37.369Z,9.85
2022-11-18T03:17:54.220Z,9.88
2022-11-18T03:20:10.993Z,9.90
2022-11-18T03:22:24.372Z,9.91
2022-11-18T03:24:34.861Z,9.91
2022-11-18T03:26:42.724Z,9.83
2022-11-18T03:28:53.244Z,9.83
2022-11-18T03:31:01.727Z,9.86
2022-11-18T03:33:15.002Z,9.86
2022-11-18T03:35:23.963Z,9.84
2022-11-18T03:37:31.519Z,9.85
2022-11-18T03:39:43.590Z,9.88
2022-11-18T03:41:54.578Z,9.87
2022-11-18T03:44:04.693Z,9.88
2022-11-18T03:46:13.333Z,9.91
2022-11-18T03:48:22.407Z,9.94
2022-11-18T03:50:32.115Z,9.95
2022-11-18T03:52:40.049Z,9.99
2022-11-18T03:54:50.366Z,10.00
2022-11-18T03:57:00.982Z,10.03
2022-11-18T03:59:16.097Z,10.07
2022-11-18T04:01:29.161Z,10.01
2022-11-18T04:03:36.743Z,9.95
2022-11-18T04:05:43.657Z,9.93
2022-11-18T04:07:57.190Z,9.91
2022-11-18T04:10:07.777Z,9.87
2022-11-18T04:12:14.515Z,9.95
2022-11-18T04:14:21.028Z,10.01
2022-11-18T04:16:25.908Z,10.07
2022-11-18T04:18:30.937Z,10.14
2022-11-18T04:20:38.757Z,10.21
2022-11-18T04:22:43.602Z,10.23
2022-11-18T04:24:48.438Z,10.23
2022-11-18T04:26:53.266Z,10.23
2022-11-18T04:28:58.038Z,10.23
2022-11-18T04:31:02.922Z,10.18
2022-11-18T04:33:07.748Z,10.19
2022-11-18T04:35:16.135Z,10.17
2022-11-18T04:37:23.601Z,10.19
2022-11-18T04:39:31.364Z,10.18
2022-11-18T04:41:48.702Z,10.18
2022-11-18T04:43:53.563Z,10.16
2022-11-18T04:45:58.351Z,10.16
2022-11-18T04:48:03.864Z,10.12
2022-11-18T04:50:09.622Z,10.12
2022-11-18T04:52:14.489Z,10.12
2022-11-18T04:54:22.739Z,10.14
2022-11-18T04:56:27.540Z,10.12
2022-11-18T04:58:32.341Z,10.12
2022-11-18T05:00:37.197Z,10.10
2022-11-18T05:02:42.025Z,10.10
2022-11-18T05:04:46.799Z,10.13
2022-11-18T05:06:51.605Z,10.16
2022-11-18T05:08:56.541Z,10.15
2022-11-18T05:11:20.548Z,10.17
2022-11-18T05:13:26.989Z,10.15
2022-11-18T05:15:31.749Z,10.17
2022-11-18T05:17:38.306Z,10.19
2022-11-18T05:19:43.118Z,10.19
2022-11-18T05:21:47.927Z,10.20
2022-11-18T05:23:52.750Z,10.19
2022-11-18T05:26:02.309Z,10.18
2022-11-18T05:28:10.047Z,10.19
2022-11-18T05:30:16.686Z,10.19
2022-11-18T05:32:21.576Z,10.18
2022-11-18T05:34:26.348Z,10.15
2022-11-18T05:36:31.138Z,10.19
2022-11-18T05:38:36.703Z,10.20
2022-11-18T05:40:41.508Z,10.23
2022-11-18T05:42:58.742Z,10.23
2022-11-18T05:45:06.904Z,10.25
2022-11-18T05:47:11.726Z,10.24
2022-11-18T05:49:19.685Z,10.23
2022-11-18T05:51:25.684Z,10.25
2022-11-18T05:53:30.216Z,10.22
2022-11-18T05:55:43.796Z,10.22
2022-11-18T05:57:50.871Z,10.20
2022-11-18T05:59:56.816Z,10.18
2022-11-18T06:02:08.002Z,10.20
2022-11-18T06:04:18.303Z,10.20
2022-11-18T06:06:24.544Z,10.17
2022-11-18T06:08:34.786Z,10.18
2022-11-18T06:10:43.709Z,10.16
2022-11-18T06:12:52.926Z,10.17
2022-11-18T06:15:02.638Z,10.14
2022-11-18T06:17:14.719Z,10.16
2022-11-18T06:19:20.198Z,10.17
2022-11-18T06:21:25.860Z,10.18
2022-11-18T06:23:33.812Z,10.15
2022-11-18T06:25:42.460Z,10.15
2022-11-18T06:27:48.441Z,10.07
2022-11-18T06:29:53.269Z,10.00
2022-11-18T06:31:58.074Z,9.93
2022-11-18T06:34:05.555Z,9.92
2022-11-18T06:36:11.541Z,9.88
2022-11-18T06:38:18.713Z,9.89
2022-11-18T06:40:23.612Z,9.94
2022-11-18T06:42:43.440Z,9.99
2022-11-18T06:44:48.173Z,9.95
2022-11-18T06:46:55.919Z,9.87
2022-11-18T06:49:01.067Z,9.91
2022-11-18T06:51:10.822Z,9.94
2022-11-18T06:53:15.648Z,9.91
2022-11-18T06:55:20.493Z,9.94
2022-11-18T06:57:25.290Z,9.99
2022-11-18T06:59:30.232Z,10.00
2022-11-18T07:01:38.552Z,10.01
2022-11-18T07:03:44.082Z,9.94
2022-11-18T07:05:48.913Z,9.84
2022-11-18T07:07:56.350Z,9.82
2022-11-18T07:10:01.218Z,9.69
2022-11-18T07:12:06.752Z,9.60
2022-11-18T07:14:11.840Z,9.56
2022-11-18T07:16:20.522Z,9.49
2022-11-18T07:18:25.358Z,9.42
2022-11-18T07:20:30.292Z,9.45
2022-11-18T07:22:35.112Z,9.33
2022-11-18T07:24:43.982Z,9.25
2022-11-18T07:26:49.042Z,9.21
2022-11-18T07:28:54.480Z,9.24
2022-11-18T07:31:03.177Z,9.17
2022-11-18T07:33:08.046Z,9.04
2022-11-18T07:35:13.042Z,9.11
2022-11-18T07:37:17.816Z,9.06
2022-11-18T07:39:22.608Z,8.98
2022-11-18T07:41:32.254Z,9.02
2022-11-18T07:43:37.885Z,8.92
2022-11-18T07:45:45.109Z,8.85
2022-11-18T07:47:49.958Z,8.97
2022-11-18T07:49:54.717Z,8.91
2022-11-18T07:51:59.481Z,8.87
2022-11-18T07:54:05.046Z,8.81
2022-11-18T07:56:10.913Z,8.77
2022-11-18T07:58:18.340Z,8.73
2022-11-18T08:00:23.435Z,8.75
2022-11-18T08:02:28.264Z,8.78
2022-11-18T08:04:33.134Z,8.79
2022-11-18T08:06:38.510Z,8.77
2022-11-18T08:08:43.782Z,8.74
2022-11-18T08:10:48.628Z,8.68
2022-11-18T08:12:53.391Z,8.68
2022-11-18T08:15:00.816Z,8.54
2022-11-18T08:17:05.591Z,8.54
2022-11-18T08:19:10.460Z,8.53
2022-11-18T08:21:16.010Z,8.48
2022-11-18T08:23:21.078Z,8.56
2022-11-18T08:25:33.012Z,8.50
2022-11-18T08:27:38.029Z,8.51
2022-11-18T08:29:43.309Z,8.49
2022-11-18T08:31:59.028Z,8.50
2022-11-18T08:34:06.160Z,8.53
2022-11-18T08:36:13.520Z,8.48
2022-11-18T08:38:24.611Z,8.48
2022-11-18T08:40:30.021Z,8.49
2022-11-18T08:42:35.301Z,8.51
2022-11-18T08:44:40.146Z,8.54
2022-11-18T08:46:49.598Z,8.56
2022-11-18T08:48:59.726Z,8.52
2022-11-18T08:51:05.129Z,8.58
2022-11-18T08:53:18.756Z,8.58
2022-11-18T08:55:26.729Z,8.58
2022-11-18T08:57:34.582Z,8.55
2022-11-18T08:59:39.380Z,8.64
2022-11-18T09:01:44.377Z,8.66
2022-11-18T09:03:49.566Z,8.53
2022-11-18T09:05:56.803Z,8.50
2022-11-18T09:08:01.597Z,8.50
2022-11-18T09:10:09.144Z,8.45
2022-11-18T09:12:15.207Z,8.53
2022-11-18T09:15:11.943Z,8.52
2022-11-18T09:16:44.892Z,8.48
2022-11-18T09:18:49.709Z,8.44
2022-11-18T09:21:02.055Z,8.49
2022-11-18T09:23:07.040Z,8.37
2022-11-18T09:25:12.723Z,8.36
2022-11-18T09:27:17.802Z,8.34
2022-11-18T09:29:26.196Z,8.32
2022-11-18T09:31:31.214Z,8.37
2022-11-18T09:33:36.231Z,8.25
2022-11-18T09:35:45.042Z,8.31
2022-11-18T09:37:52.464Z,8.33
2022-11-18T09:39:57.378Z,8.36
2022-11-18T09:42:15.307Z,8.32
2022-11-18T09:44:36.872Z,8.28
2022-11-18T09:46:54.198Z,8.35
2022-11-18T09:49:16.173Z,8.31
2022-11-18T09:51:21.229Z,8.43
2022-11-18T09:53:29.454Z,8.31
2022-11-18T09:55:37.523Z,8.32
2022-11-18T09:57:46.441Z,8.31
2022-11-18T09:59:51.452Z,8.30
2022-11-18T10:02:06.653Z,8.26
2022-11-18T10:04:17.649Z,8.27
2022-11-18T10:06:27.395Z,8.29
2022-11-18T10:08:39.517Z,8.31
2022-11-18T10:10:58.302Z,8.22
2022-11-18T10:13:12.707Z,8.21
2022-11-18T10:15:29.790Z,8.21
2022-11-18T10:17:45.699Z,8.23
2022-11-18T10:19:59.538Z,8.27
2022-11-18T10:22:24.669Z,8.26
2022-11-18T10:24:39.171Z,8.30
2022-11-18T10:26:44.871Z,8.26
2022-11-18T10:28:49.728Z,8.25
2022-11-18T10:30:55.478Z,8.20
2022-11-18T10:33:02.460Z,8.12
2022-11-18T10:35:27.424Z,8.08
2022-11-18T10:38:05.750Z,7.99
2022-11-18T10:40:03.057Z,7.87
2022-11-18T10:42:09.614Z,7.85
2022-11-18T10:44:31.543Z,7.85
2022-11-18T10:46:39.385Z,7.87
2022-11-18T10:48:44.261Z,7.92
2022-11-18T10:50:55.529Z,7.93
2022-11-18T10:53:33.956Z,8.03
2022-11-18T10:55:43.921Z,8.08
2022-11-18T10:57:50.124Z,8.11
2022-11-18T10:59:58.114Z,8.21
2022-11-18T11:02:09.821Z,8.26
2022-11-18T11:04:22.898Z,8.21
2022-11-18T11:06:38.004Z,8.23
2022-11-18T11:08:51.035Z,8.23
2022-11-18T11:11:02.406Z,8.29
2022-11-18T11:13:15.796Z,8.34
2022-11-18T11:15:24.741Z,8.39
2022-11-18T11:17:34.821Z,8.37
2022-11-18T11:19:55.022Z,8.39
2022-11-18T11:22:00.435Z,8.34
2022-11-18T11:24:12.582Z,8.32
2022-11-18T11:29:10.814Z,8.51
2022-11-18T11:31:32.347Z,8.55
2022-11-18T11:33:45.655Z,8.56
2022-11-18T11:36:06.532Z,8.66
2022-11-18T11:38:21.913Z,8.74
2022-11-18T11:40:37.601Z,8.77
2022-11-18T11:42:51.755Z,8.84
2022-11-18T11:45:06.957Z,8.90
2022-11-18T11:48:01.496Z,8.91
2022-11-18T11:50:16.635Z,8.91
2022-11-18T11:52:32.686Z,8.84
2022-11-18T11:54:52.554Z,8.87
2022-11-18T11:57:04.160Z,8.88
2022-11-18T11:59:22.207Z,8.89
2022-11-18T12:01:36.445Z,8.85
2022-11-18T12:03:55.900Z,8.94
2022-11-18T12:06:00.798Z,8.95
2022-11-18T12:08:11.916Z,9.02
2022-11-18T12:10:45.007Z,9.00
2022-11-18T12:12:59.696Z,8.96
2022-11-18T12:15:22.865Z,8.98
2022-11-18T12:17:38.002Z,8.90
2022-11-18T12:19:47.966Z,8.89
2022-11-18T12:22:01.830Z,8.90
2022-11-18T12:24:36.650Z,8.91
2022-11-18T12:26:43.755Z,8.99
2022-11-18T12:29:02.124Z,8.94
2022-11-18T12:31:41.952Z,8.94
2022-11-18T12:33:48.914Z,8.86
2022-11-18T12:35:54.555Z,8.98
2022-11-18T12:38:09.346Z,9.05
2022-11-18T12:40:39.845Z,9.03
2022-11-18T12:43:02.754Z,9.04
2022-11-18T12:45:45.003Z,9.04
2022-11-18T12:48:12.773Z,9.05
2022-11-18T12:50:21.688Z,9.02
2022-11-18T12:52:57.490Z,9.09
2022-11-18T12:55:08.687Z,8.98
2022-11-18T12:57:21.480Z,9.06
2022-11-18T12:59:35.110Z,9.07
2022-11-18T13:01:39.904Z,9.14
2022-11-18T13:03:47.833Z,9.15
2022-11-18T13:05:54.013Z,9.13
2022-11-18T13:08:17.215Z,9.14
2022-11-18T13:10:30.468Z,9.19
2022-11-18T13:12:36.136Z,9.21
2022-11-18T13:14:56.621Z,9.14
2022-11-18T13:17:22.995Z,9.20
2022-11-18T13:19:30.146Z,9.13
2022-11-18T13:21:50.011Z,9.14
2022-11-18T13:24:03.416Z,9.21
2022-11-18T13:26:14.947Z,9.22
2022-11-18T13:28:29.909Z,9.24
2022-11-18T13:30:39.325Z,9.25
2022-11-18T13:32:49.560Z,9.22
2022-11-18T13:34:58.912Z,9.24
2022-11-18T13:37:03.980Z,9.32
2022-11-18T13:39:09.760Z,9.36
2022-11-18T13:41:24.276Z,9.32
2022-11-18T13:43:29.532Z,9.32
2022-11-18T13:45:35.608Z,9.27
2022-11-18T13:47:44.719Z,9.26
2022-11-18T13:49:56.408Z,9.24
2022-11-18T13:52:03.843Z,9.24
2022-11-18T13:54:08.687Z,9.23
2022-11-18T13:56:22.222Z,9.28
2022-11-18T13:58:55.563Z,9.24
2022-11-18T14:01:02.394Z,9.25
2022-11-18T14:03:17.791Z,9.27
2022-11-18T14:05:23.636Z,9.28
2022-11-18T14:07:34.659Z,9.37
2022-11-18T14:09:39.566Z,9.40
2022-11-18T14:11:46.107Z,9.37
2022-11-18T14:13:52.303Z,9.40
2022-11-18T14:15:58.861Z,9.32
2022-11-18T14:18:05.412Z,9.31
2022-11-18T14:20:19.443Z,9.29
2022-11-18T14:22:26.759Z,9.22
2022-11-18T14:24:34.166Z,9.28
2022-11-18T14:26:41.088Z,9.27
2022-11-18T14:28:57.045Z,9.27
2022-11-18T14:31:03.987Z,9.20
2022-11-18T14:33:20.661Z,9.25
2022-11-18T14:35:28.220Z,9.21
2022-11-18T14:37:36.608Z,9.22
2022-11-18T14:39:44.427Z,9.22
2022-11-18T14:41:51.893Z,9.21
2022-11-18T14:43:56.686Z,9.26
2022-11-18T14:46:03.893Z,9.27
2022-11-18T14:48:10.447Z,9.24
2022-11-18T14:50:19.039Z,9.29
2022-11-18T14:52:23.862Z,9.36
2022-11-18T14:54:29.538Z,9.35
2022-11-18T14:56:37.896Z,9.33
2022-11-18T14:58:42.791Z,9.23
2022-11-18T15:00:49.951Z,9.27
2022-11-18T15:02:54.820Z,9.21
2022-11-18T15:04:59.693Z,9.17
2022-11-18T15:07:04.626Z,9.17
2022-11-18T15:09:10.586Z,9.17
2022-11-18T15:11:16.102Z,9.16
2022-11-18T15:13:23.532Z,9.17
2022-11-18T15:15:28.385Z,9.14
2022-11-18T15:17:35.682Z,9.06
2022-11-18T15:19:40.876Z,9.06
2022-11-18T15:21:48.677Z,9.06
2022-11-18T15:23:53.579Z,9.12
2022-11-18T15:25:58.423Z,9.09
2022-11-18T15:28:03.241Z,9.14
2022-11-18T15:30:14.489Z,9.10
2022-11-18T15:32:19.287Z,9.01
2022-11-18T15:34:24.251Z,9.05
2022-11-18T15:36:29.948Z,9.03
2022-11-18T15:38:36.314Z,9.04
2022-11-18T15:40:42.381Z,9.06
2022-11-18T15:42:52.062Z,9.04
2022-11-18T15:44:57.312Z,9.10
2022-11-18T15:47:04.866Z,9.14
2022-11-18T15:49:10.112Z,9.23
2022-11-18T15:51:15.271Z,9.22
2022-11-18T15:53:20.035Z,9.16
2022-11-18T15:55:24.905Z,9.10
2022-11-18T15:57:29.739Z,9.12
2022-11-18T15:59:34.540Z,9.14
2022-11-18T16:01:43.343Z,9.03
2022-11-18T16:03:50.988Z,9.05
2022-11-18T16:05:55.775Z,9.09
2022-11-18T16:08:00.661Z,9.10
2022-11-18T16:10:17.925Z,9.09
2022-11-18T16:12:47.075Z,9.12
2022-11-18T16:15:11.887Z,9.16
2022-11-18T16:17:16.892Z,9.18
2022-11-18T16:19:26.774Z,9.18
2022-11-18T16:21:36.270Z,9.09
2022-11-18T16:23:41.098Z,9.09
2022-11-18T16:25:47.095Z,9.15
2022-11-18T16:27:51.947Z,9.22
2022-11-18T16:29:56.812Z,9.13
2022-11-18T16:31:58.975Z,9.11
2022-11-18T16:34:08.320Z,9.14
2022-11-18T16:36:15.779Z,9.18
2022-11-18T16:38:20.568Z,9.18
2022-11-18T16:40:25.440Z,9.18
2022-11-18T16:42:33.086Z,9.13
2022-11-18T16:44:38.289Z,9.12
2022-11-18T16:46:43.873Z,9.07
2022-11-18T16:48:48.677Z,9.04
2022-11-18T16:51:01.577Z,9.07
2022-11-18T16:53:09.034Z,9.11
2022-11-18T16:55:13.816Z,9.10
2022-11-18T16:57:18.630Z,9.07
2022-11-18T16:59:25.229Z,9.05
2022-11-18T17:01:30.625Z,9.04
2022-11-18T17:03:35.802Z,9.01
2022-11-18T17:05:40.935Z,9.06
2022-11-18T17:07:47.110Z,9.03
2022-11-18T17:09:54.989Z,9.15
2022-11-18T17:12:04.102Z,9.19
2022-11-18T17:14:09.422Z,9.17
2022-11-18T17:16:15.084Z,9.21
2022-11-18T17:18:20.134Z,9.21
2022-11-18T17:20:25.224Z,9.25
2022-11-18T17:22:30.256Z,9.25
2022-11-18T17:24:35.854Z,9.33
2022-11-18T17:26:44.403Z,9.39
2022-11-18T17:28:50.753Z,9.41
2022-11-18T17:30:56.226Z,9.43
2022-11-18T17:33:01.470Z,9.43
2022-11-18T17:35:06.723Z,9.37
2022-11-18T17:37:11.469Z,9.28
2022-11-18T17:39:17.756Z,9.21
2022-11-18T17:41:37.031Z,9.14
2022-11-18T17:43:45.305Z,9.04
2022-11-18T17:45:53.058Z,8.91
2022-11-18T17:48:01.333Z,8.79
2022-11-18T17:50:06.751Z,8.74
2022-11-18T17:52:12.692Z,8.80
2022-11-18T17:54:19.154Z,8.78
2022-11-18T17:56:24.707Z,8.80
2022-11-18T17:58:29.276Z,8.80
2022-11-18T18:00:37.357Z,8.76
2022-11-18T18:02:42.208Z,8.67
2022-11-18T18:04:47.062Z,8.68
2022-11-18T18:06:53.345Z,8.69
2022-11-18T18:08:59.046Z,8.73
2022-11-18T18:11:04.068Z,8.74
2022-11-18T18:13:21.364Z,8.70
2022-11-18T18:15:26.199Z,8.67
2022-11-18T18:17:33.716Z,8.74
2022-11-18T18:19:38.464Z,8.76
2022-11-18T18:21:43.432Z,8.76
2022-11-18T18:23:48.392Z,8.71
2022-11-18T18:25:53.241Z,8.74
2022-11-18T18:27:58.017Z,8.71
2022-11-18T18:30:02.895Z,8.71
2022-11-18T18:32:08.202Z,8.65
2022-11-18T18:34:15.705Z,8.52
2022-11-18T18:36:22.952Z,8.42
2022-11-18T18:38:28.451Z,8.29
2022-11-18T18:40:33.284Z,8.20
2022-11-18T18:42:38.173Z,8.13
2022-11-18T18:44:55.439Z,8.09
2022-11-18T18:47:00.238Z,8.08
2022-11-18T18:49:07.720Z,8.08
2022-11-18T18:51:17.840Z,8.10
2022-11-18T18:53:22.785Z,8.04
2022-11-18T18:55:27.593Z,8.09
2022-11-18T18:57:32.575Z,8.08
2022-11-18T18:59:37.478Z,8.06
2022-11-18T19:01:43.820Z,8.03
2022-11-18T19:03:48.924Z,8.05
2022-11-18T19:06:27.322Z,8.08
2022-11-18T19:08:21.395Z,8.15
2022-11-18T19:10:26.162Z,8.15
2022-11-18T19:12:43.758Z,8.24
2022-11-18T19:14:48.645Z,8.29
2022-11-18T19:16:53.761Z,8.42
2022-11-18T19:18:58.922Z,8.41
2022-11-18T19:21:01.138Z,8.44
2022-11-18T19:23:10.343Z,8.53
2022-11-18T19:25:18.559Z,8.60
2022-11-18T19:27:23.644Z,8.69
2022-11-18T19:29:28.519Z,8.74
2022-11-18T19:31:33.334Z,8.77
2022-11-18T19:33:38.164Z,8.83
2022-11-18T19:35:42.953Z,8.80
2022-11-18T19:37:47.804Z,8.79
2022-11-18T19:39:52.598Z,8.77
2022-11-18T19:42:00.121Z,8.68
2022-11-18T19:44:05.638Z,8.67
2022-11-18T19:46:10.778Z,8.72
2022-11-18T19:48:15.529Z,8.75
2022-11-18T19:50:20.580Z,8.64
2022-11-18T19:52:25.422Z,8.57
2022-11-18T19:54:30.290Z,8.55
2022-11-18T19:56:35.176Z,8.57
2022-11-18T19:58:45.157Z,8.67
2022-11-18T20:00:49.958Z,8.77
2022-11-18T20:02:54.925Z,8.83
2022-11-18T20:05:12.185Z,8.92
2022-11-18T20:07:17.158Z,8.99
2022-11-18T20:09:22.164Z,9.04
2022-11-18T20:11:28.150Z,9.10
2022-11-18T20:13:33.001Z,9.17
2022-11-18T20:15:40.727Z,9.26
2022-11-18T20:17:48.102Z,9.26
2022-11-18T20:19:53.366Z,9.11
2022-11-18T20:21:58.124Z,9.05
2022-11-18T20:24:05.171Z,9.09
2022-11-18T20:26:13.132Z,9.17
2022-11-18T20:28:18.083Z,9.12
2022-11-18T20:30:23.308Z,9.15
2022-11-18T20:32:32.243Z,9.14
2022-11-18T20:34:39.979Z,9.16
2022-11-18T20:36:46.585Z,9.18
2022-11-18T20:38:54.701Z,9.20
2022-11-18T20:41:03.460Z,9.19
2022-11-18T20:43:17.227Z,9.17
2022-11-18T20:45:22.234Z,9.06
2022-11-18T20:47:27.032Z,8.98
2022-11-18T20:49:34.493Z,8.94
2022-11-18T20:51:40.511Z,8.80
2022-11-18T20:53:46.500Z,8.78
2022-11-18T20:55:52.219Z,8.66
2022-11-18T20:57:57.055Z,8.54
2022-11-18T21:00:01.810Z,8.45
2022-11-18T21:02:06.731Z,8.49
2022-11-18T21:04:14.381Z,8.43
2022-11-18T21:06:23.047Z,8.33
2022-11-18T21:08:27.895Z,8.22
2022-11-18T21:10:33.487Z,7.66
2022-11-18T21:12:58.295Z,7.52
2022-11-18T21:15:00.552Z,7.47
2022-11-18T21:17:05.498Z,7.44
2022-11-18T21:19:10.503Z,7.34
2022-11-18T21:21:27.774Z,7.24
2022-11-18T21:23:35.498Z,7.14
2022-11-18T21:25:44.502Z,6.88
2022-11-18T21:27:49.344Z,6.61
2022-11-18T21:29:54.250Z,6.48
2022-11-18T21:32:00.689Z,6.37
2022-11-18T21:34:05.526Z,6.29
2022-11-18T21:36:11.273Z,6.35
2022-11-18T21:38:16.238Z,6.41
2022-11-18T21:40:23.729Z,6.52
2022-11-18T21:42:28.550Z,6.49
2022-11-18T21:44:33.373Z,6.60
2022-11-18T21:46:39.587Z,6.57
2022-11-18T21:48:45.043Z,6.59
2022-11-18T21:50:49.802Z,6.51
2022-11-18T21:52:54.791Z,6.38
2022-11-18T21:55:01.605Z,6.36
2022-11-18T21:57:09.083Z,6.38
2022-11-18T21:59:14.045Z,6.20
2022-11-18T22:01:21.114Z,6.16
2022-11-18T22:03:25.922Z,6.18
2022-11-18T22:05:30.745Z,6.19
2022-11-18T22:07:35.758Z,6.21
2022-11-18T22:09:40.693Z,6.26
2022-11-18T22:11:47.108Z,6.32
2022-11-18T22:13:55.510Z,6.25
2022-11-18T22:16:03.785Z,6.27
2022-11-18T22:18:08.792Z,6.26
2022-11-18T22:20:15.139Z,6.30
2022-11-18T22:22:19.984Z,6.21
2022-11-18T22:24:24.842Z,6.12
2022-11-18T22:26:30.267Z,6.12
2022-11-18T22:28:35.475Z,6.04
2022-11-18T22:30:42.942Z,6.05
2022-11-18T22:32:47.751Z,6.02
2022-11-18T22:34:52.599Z,5.84
2022-11-18T22:36:57.361Z,5.85
2022-11-18T22:39:02.520Z,5.83
2022-11-18T22:41:09.273Z,5.83
2022-11-18T22:43:11.434Z,5.91
2022-11-18T22:45:19.367Z,5.98
2022-11-18T22:47:26.934Z,6.03
2022-11-18T22:49:31.748Z,5.92
2022-11-18T22:51:37.277Z,5.84
2022-11-18T22:53:42.070Z,5.72
2022-11-18T22:55:46.877Z,5.65
2022-11-18T22:57:51.675Z,5.67
2022-11-18T22:59:56.574Z,5.59
2022-11-18T23:02:04.481Z,5.50
2022-11-18T23:04:13.201Z,5.46
2022-11-18T23:06:18.083Z,5.40
2022-11-18T23:08:22.929Z,5.36
2022-11-18T23:10:27.793Z,5.22
2022-11-18T23:12:47.826Z,5.21
2022-11-18T23:14:52.723Z,5.11
2022-11-18T23:16:57.543Z,4.98
2022-11-18T23:19:02.807Z,5.04
2022-11-18T23:21:10.334Z,5.13
2022-11-18T23:23:15.129Z,5.22
2022-11-18T23:25:19.944Z,5.08
2022-11-18T23:27:24.694Z,5.04
2022-11-18T23:29:29.567Z,5.17
2022-11-18T23:31:34.496Z,5.20
2022-11-18T23:33:39.501Z,5.27
2022-11-18T23:35:44.250Z,5.25
2022-11-18T23:37:51.775Z,5.21
2022-11-18T23:39:56.514Z,5.04
2022-11-18T23:42:01.331Z,5.03
2022-11-18T23:44:07.220Z,4.96
2022-11-18T23:46:12.862Z,4.96
2022-11-18T23:48:17.622Z,4.94
2022-11-18T23:50:22.423Z,4.94
2022-11-18T23:52:27.179Z,5.03
2022-11-18T23:54:34.611Z,5.13
2022-11-18T23:56:39.380Z,5.20
2022-11-18T23:58:46.961Z,5.20
